createdAt,value
2019-03-18T00:02:30.122Z,5.30
2019-03-18T00:05:01.409Z,5.30
2019-03-18T00:07:32.541Z,5.30
2019-03-18T00:10:03.755Z,5.30
2019-03-18T00:12:35.056Z,5.30
2019-03-18T00:15:06.611Z,5.30
2019-03-18T00:17:37.815Z,5.30
2019-03-18T00:20:09.159Z,5.30
2019-03-18T00:22:40.378Z,5.30
2019-03-18T00:25:11.551Z,5.20
2019-03-18T00:27:43.019Z,5.20
2019-03-18T00:30:15.387Z,5.20
2019-03-18T00:32:46.663Z,5.20
2019-03-18T00:35:17.925Z,5.20
2019-03-18T00:37:49.156Z,5.20
2019-03-18T00:40:20.554Z,5.20
2019-03-18T00:42:51.689Z,5.20
2019-03-18T00:45:22.628Z,5.20
2019-03-18T00:47:53.577Z,5.20
2019-03-18T00:50:24.527Z,5.20
2019-03-18T00:52:55.484Z,5.10
2019-03-18T00:55:26.440Z,5.10
2019-03-18T00:57:57.397Z,5.20
2019-03-18T01:00:28.396Z,5.10
2019-03-18T01:02:59.373Z,5.10
2019-03-18T01:05:30.472Z,5.10
2019-03-18T01:08:01.496Z,5.10
2019-03-18T01:10:32.393Z,5.10
2019-03-18T01:13:03.341Z,5.10
2019-03-18T01:15:34.235Z,5.10
2019-03-18T01:18:05.386Z,5.10
2019-03-18T01:20:36.347Z,5.10
2019-03-18T01:23:08.480Z,5.00
2019-03-18T01:25:39.467Z,5.00
2019-03-18T01:28:10.608Z,5.00
2019-03-18T01:30:41.578Z,5.00
2019-03-18T01:33:12.516Z,5.00
2019-03-18T01:35:43.503Z,5.00
2019-03-18T01:38:14.468Z,5.00
2019-03-18T01:40:45.330Z,5.00
2019-03-18T01:43:17.373Z,5.00
2019-03-18T01:45:48.456Z,4.90
2019-03-18T01:48:19.492Z,4.90
2019-03-18T01:50:50.464Z,4.90
2019-03-18T01:53:21.488Z,4.90
2019-03-18T01:55:52.390Z,4.90
2019-03-18T01:58:23.318Z,4.90
2019-03-18T02:00:54.184Z,4.90
2019-03-18T02:03:26.211Z,4.90
2019-03-18T02:05:57.075Z,4.80
2019-03-18T02:08:28.056Z,4.80
2019-03-18T02:10:59.093Z,4.80
2019-03-18T02:13:31.103Z,4.80
2019-03-18T02:16:02.015Z,4.80
2019-03-18T02:18:32.944Z,4.80
2019-03-18T02:21:03.803Z,4.80
2019-03-18T02:23:34.746Z,4.80
2019-03-18T02:26:05.775Z,4.80
2019-03-18T02:28:36.787Z,4.80
2019-03-18T02:31:07.796Z,4.80
2019-03-18T02:33:38.842Z,4.80
2019-03-18T02:36:10.909Z,4.80
2019-03-18T02:38:41.987Z,4.80
2019-03-18T02:41:12.900Z,4.80
2019-03-18T02:43:43.921Z,4.80
2019-03-18T02:46:14.889Z,4.80
2019-03-18T02:48:45.815Z,4.80
2019-03-18T02:51:16.868Z,4.80
2019-03-18T02:53:47.880Z,4.80
2019-03-18T02:56:18.894Z,4.70
2019-03-18T02:58:50.120Z,4.70
2019-03-18T03:01:21.137Z,4.70
2019-03-18T03:03:52.060Z,4.60
2019-03-18T03:06:22.946Z,4.60
2019-03-18T03:08:53.858Z,4.60
2019-03-18T03:11:24.730Z,4.60
2019-03-18T03:13:55.665Z,4.60
2019-03-18T03:16:27.728Z,4.60
2019-03-18T03:18:59.961Z,4.60
2019-03-18T03:21:30.936Z,4.50
2019-03-18T03:24:01.902Z,4.50
2019-03-18T03:26:32.785Z,4.40
2019-03-18T03:29:03.763Z,4.40
2019-03-18T03:31:34.669Z,4.40
2019-03-18T03:34:12.581Z,4.30
2019-03-18T03:36:38.431Z,4.30
2019-03-18T03:39:09.833Z,4.30
2019-03-18T03:41:40.799Z,4.30
2019-03-18T03:44:11.964Z,4.30
2019-03-18T03:46:44.157Z,4.20
2019-03-18T03:49:15.238Z,4.20
2019-03-18T03:51:46.303Z,4.20
2019-03-18T03:54:17.221Z,4.10
2019-03-18T03:56:48.181Z,4.10
2019-03-18T03:59:19.724Z,4.10
2019-03-18T04:01:50.794Z,4.10
2019-03-18T04:04:21.833Z,4.10
2019-03-18T04:06:52.879Z,4.10
2019-03-18T04:09:24.030Z,4.10
2019-03-18T04:11:55.016Z,4.10
2019-03-18T04:14:26.769Z,4.10
2019-03-18T04:17:02.269Z,4.10
2019-03-18T04:19:30.679Z,4.10
2019-03-18T04:22:01.787Z,4.10
2019-03-18T04:24:33.027Z,4.10
2019-03-18T04:27:03.987Z,4.10
2019-03-18T04:29:35.757Z,4.00
2019-03-18T04:32:07.006Z,4.00
2019-03-18T04:34:38.103Z,4.00
2019-03-18T04:37:09.338Z,4.00
2019-03-18T04:39:40.339Z,3.90
2019-03-18T04:42:11.250Z,3.90
2019-03-18T04:44:42.821Z,3.80
2019-03-18T04:47:14.798Z,3.80
2019-03-18T04:49:45.992Z,3.80
2019-03-18T04:52:17.287Z,3.80
2019-03-18T04:54:48.354Z,3.70
2019-03-18T04:57:19.513Z,3.70
2019-03-18T04:59:50.479Z,3.70
2019-03-18T05:02:21.409Z,3.60
2019-03-18T05:04:52.508Z,3.60
2019-03-18T05:07:23.664Z,3.60
2019-03-18T05:09:54.650Z,3.60
2019-03-18T05:12:25.604Z,3.60
2019-03-18T05:14:56.632Z,3.50
2019-03-18T05:17:27.795Z,3.50
2019-03-18T05:19:58.931Z,3.50
2019-03-18T05:22:30.492Z,3.50
2019-03-18T05:25:01.434Z,3.50
2019-03-18T05:27:32.979Z,3.50
2019-03-18T05:30:04.281Z,3.40
2019-03-18T05:32:35.603Z,3.40
2019-03-18T05:35:06.933Z,3.40
2019-03-18T05:37:38.378Z,3.40
2019-03-18T05:40:13.100Z,3.50
2019-03-18T05:42:44.153Z,3.50
2019-03-18T05:45:15.456Z,3.50
2019-03-18T05:47:46.481Z,3.50
2019-03-18T05:50:17.660Z,3.60
2019-03-18T05:52:48.663Z,3.70
2019-03-18T05:55:19.974Z,3.70
2019-03-18T05:57:51.004Z,3.80
2019-03-18T06:00:22.151Z,3.80
2019-03-18T06:02:53.332Z,3.80
2019-03-18T06:05:24.302Z,3.90
2019-03-18T06:07:55.365Z,3.90
2019-03-18T06:10:26.445Z,4.00
2019-03-18T06:12:57.510Z,4.00
2019-03-18T06:15:28.544Z,4.00
2019-03-18T06:18:00.174Z,4.10
2019-03-18T06:20:31.784Z,4.10
2019-03-18T06:23:03.797Z,4.10
2019-03-18T06:25:35.594Z,4.10
2019-03-18T06:28:06.762Z,4.10
2019-03-18T06:30:39.035Z,4.20
2019-03-18T06:33:11.362Z,4.20
2019-03-18T06:35:42.991Z,4.20
2019-03-18T06:38:13.995Z,4.20
2019-03-18T06:40:45.135Z,4.30
2019-03-18T06:43:16.142Z,4.30
2019-03-18T06:45:48.653Z,4.40
2019-03-18T06:48:20.234Z,4.40
2019-03-18T06:50:52.209Z,4.50
2019-03-18T06:53:23.200Z,4.60
2019-03-18T06:55:54.339Z,4.80
2019-03-18T06:58:25.325Z,5.00
2019-03-18T07:00:57.035Z,5.10
2019-03-18T07:03:29.216Z,5.10
2019-03-18T07:06:00.228Z,5.20
2019-03-18T07:08:31.910Z,5.30
2019-03-18T07:11:03.553Z,5.50
2019-03-18T07:13:35.143Z,5.60
2019-03-18T07:16:08.199Z,5.70
2019-03-18T07:18:39.924Z,5.70
2019-03-18T07:21:14.844Z,5.60
2019-03-18T07:23:47.441Z,5.50
2019-03-18T07:26:19.117Z,5.50
2019-03-18T07:28:50.807Z,5.40
2019-03-18T07:31:22.925Z,5.30
2019-03-18T07:33:54.660Z,5.20
2019-03-18T07:36:26.604Z,5.30
2019-03-18T07:38:58.223Z,5.40
2019-03-18T07:41:30.457Z,5.60
2019-03-18T07:44:01.921Z,5.90
2019-03-18T07:46:33.717Z,6.20
2019-03-18T07:49:05.394Z,6.50
2019-03-18T07:51:36.579Z,6.60
2019-03-18T07:54:08.370Z,6.60
2019-03-18T07:56:39.972Z,6.80
2019-03-18T07:59:11.541Z,7.10
2019-03-18T08:01:42.695Z,7.00
2019-03-18T08:04:14.360Z,6.60
2019-03-18T08:06:46.104Z,6.20
2019-03-18T08:09:18.239Z,6.00
2019-03-18T08:11:51.167Z,5.80
2019-03-18T08:14:22.861Z,5.70
2019-03-18T08:16:54.575Z,5.60
2019-03-18T08:19:26.214Z,5.50
2019-03-18T08:21:58.004Z,5.50
2019-03-18T08:24:29.558Z,5.50
2019-03-18T08:27:01.276Z,5.60
2019-03-18T08:29:32.903Z,5.70
2019-03-18T08:32:04.654Z,5.70
2019-03-18T08:34:36.295Z,5.80
2019-03-18T08:37:08.073Z,5.80
2019-03-18T08:39:39.828Z,5.80
2019-03-18T08:42:11.675Z,5.80
2019-03-18T08:44:43.178Z,5.80
2019-03-18T08:47:14.645Z,5.80
2019-03-18T08:49:45.825Z,5.70
2019-03-18T08:52:17.646Z,5.80
2019-03-18T08:54:49.059Z,5.90
2019-03-18T08:57:20.873Z,6.00
2019-03-18T08:59:52.423Z,6.10
2019-03-18T09:02:23.765Z,6.20
2019-03-18T09:04:55.339Z,6.40
2019-03-18T09:07:27.578Z,6.60
2019-03-18T09:09:59.924Z,7.20
2019-03-18T09:12:32.014Z,7.70
2019-03-18T09:15:06.439Z,7.80
2019-03-18T09:17:38.036Z,8.00
2019-03-18T09:20:10.861Z,8.20
2019-03-18T09:22:43.200Z,8.10
2019-03-18T09:25:15.117Z,7.90
2019-03-18T09:27:47.160Z,7.70
2019-03-18T09:30:18.885Z,7.30
2019-03-18T09:32:51.024Z,7.00
2019-03-18T09:35:22.817Z,6.80
2019-03-18T09:37:55.205Z,6.60
2019-03-18T09:40:29.331Z,6.50
2019-03-18T09:43:01.026Z,6.40
2019-03-18T09:45:32.996Z,6.40
2019-03-18T09:48:05.237Z,6.40
2019-03-18T09:50:37.017Z,6.50
2019-03-18T09:53:08.335Z,6.60
2019-03-18T09:55:39.969Z,6.70
2019-03-18T09:58:11.652Z,6.70
2019-03-18T10:00:43.412Z,6.60
2019-03-18T10:03:15.227Z,6.60
2019-03-18T10:05:46.963Z,6.60
2019-03-18T10:08:18.628Z,6.60
2019-03-18T10:10:50.188Z,6.60
2019-03-18T10:13:21.768Z,6.40
2019-03-18T10:15:54.038Z,6.40
2019-03-18T10:18:25.905Z,6.30
2019-03-18T10:20:57.563Z,6.30
2019-03-18T10:23:29.431Z,6.30
2019-03-18T10:26:01.336Z,6.30
2019-03-18T10:28:33.090Z,6.50
2019-03-18T10:31:04.717Z,6.60
2019-03-18T10:33:38.381Z,6.70
2019-03-18T10:36:10.693Z,6.80
2019-03-18T10:38:43.010Z,6.90
2019-03-18T10:41:15.386Z,7.00
2019-03-18T10:43:47.399Z,7.10
2019-03-18T10:46:30.508Z,7.10
2019-03-18T10:49:02.584Z,7.10
2019-03-18T10:51:34.258Z,7.10
2019-03-18T10:54:06.556Z,7.00
2019-03-18T10:56:41.028Z,7.00
2019-03-18T10:59:13.246Z,6.90
2019-03-18T11:01:45.413Z,7.00
2019-03-18T11:04:17.137Z,7.10
2019-03-18T11:06:48.731Z,7.20
2019-03-18T11:09:20.409Z,7.20
2019-03-18T11:11:52.051Z,7.30
2019-03-18T11:14:23.650Z,7.40
2019-03-18T11:16:55.334Z,7.60
2019-03-18T11:19:27.085Z,7.70
2019-03-18T11:21:58.764Z,7.70
2019-03-18T11:24:30.630Z,7.60
2019-03-18T11:27:02.244Z,7.50
2019-03-18T11:29:34.340Z,7.30
2019-03-18T11:32:06.279Z,7.20
2019-03-18T11:34:38.478Z,7.10
2019-03-18T11:37:10.733Z,7.00
2019-03-18T11:39:42.878Z,6.90
2019-03-18T11:42:14.739Z,6.80
2019-03-18T11:44:46.498Z,6.80
2019-03-18T11:47:18.579Z,6.80
2019-03-18T11:49:50.272Z,6.90
2019-03-18T11:52:21.941Z,6.80
2019-03-18T11:54:53.338Z,6.90
2019-03-18T11:57:24.762Z,7.00
2019-03-18T11:59:56.561Z,7.10
2019-03-18T12:02:28.294Z,7.10
2019-03-18T12:05:01.329Z,7.20
2019-03-18T12:07:33.260Z,7.30
2019-03-18T12:10:05.905Z,7.40
2019-03-18T12:12:37.505Z,7.40
2019-03-18T12:17:59.592Z,7.40
2019-03-18T12:20:33.075Z,7.40
2019-03-18T12:23:04.518Z,7.40
2019-03-18T12:25:36.147Z,7.30
2019-03-18T12:28:08.186Z,7.20
2019-03-18T12:30:40.218Z,7.20
2019-03-18T12:33:13.516Z,7.20
2019-03-18T12:35:45.413Z,7.20
2019-03-18T12:38:17.272Z,7.30
2019-03-18T12:40:49.026Z,7.40
2019-03-18T12:43:20.677Z,7.50
2019-03-18T12:45:51.857Z,7.60
2019-03-18T12:48:23.495Z,7.70
2019-03-18T12:50:56.693Z,7.80
2019-03-18T12:53:28.658Z,7.90
2019-03-18T12:56:00.334Z,7.90
2019-03-18T12:58:34.926Z,7.90
2019-03-18T13:01:12.514Z,7.70
2019-03-18T13:03:39.927Z,7.70
2019-03-18T13:06:11.547Z,7.60
2019-03-18T13:08:43.624Z,7.60
2019-03-18T13:11:15.654Z,7.60
2019-03-18T13:13:47.363Z,7.50
2019-03-18T13:16:19.085Z,7.40
2019-03-18T13:18:51.831Z,7.40
2019-03-18T13:21:24.073Z,7.40
2019-03-18T13:23:55.224Z,7.30
2019-03-18T13:26:26.185Z,7.30
2019-03-18T13:28:57.715Z,7.40
2019-03-18T13:31:29.425Z,7.40
2019-03-18T13:34:01.055Z,7.40
2019-03-18T13:36:32.771Z,7.50
2019-03-18T13:39:04.910Z,7.40
2019-03-18T13:41:36.366Z,7.50
2019-03-18T13:44:08.023Z,7.50
2019-03-18T13:46:40.882Z,7.60
2019-03-18T13:49:15.808Z,7.60
2019-03-18T13:51:46.131Z,7.50
2019-03-18T13:54:17.777Z,7.40
2019-03-18T13:56:49.365Z,7.20
2019-03-18T13:59:21.057Z,7.10
2019-03-18T14:01:52.858Z,7.10
2019-03-18T14:04:24.656Z,7.10
2019-03-18T14:06:56.921Z,7.10
2019-03-18T14:09:29.444Z,7.10
2019-03-18T14:12:01.309Z,7.10
2019-03-18T14:14:33.391Z,7.20
2019-03-18T14:17:05.157Z,7.20
2019-03-18T14:19:37.163Z,7.10
2019-03-18T14:22:09.491Z,7.10
2019-03-18T14:24:41.803Z,7.10
2019-03-18T14:27:14.204Z,7.10
2019-03-18T14:29:46.773Z,7.10
2019-03-18T14:32:18.046Z,7.10
2019-03-18T14:34:49.969Z,7.10
2019-03-18T14:37:21.574Z,7.10
2019-03-18T14:39:52.939Z,7.10
2019-03-18T14:42:24.676Z,7.10
2019-03-18T14:44:56.429Z,7.20
2019-03-18T14:47:27.621Z,7.20
2019-03-18T14:49:59.091Z,7.20
2019-03-18T14:52:31.645Z,8.30
2019-03-18T14:55:02.684Z,10.60
2019-03-18T14:57:34.663Z,11.90
2019-03-18T15:00:08.131Z,13.10
2019-03-18T15:02:40.498Z,12.90
2019-03-18T15:05:12.388Z,13.10
2019-03-18T15:07:46.943Z,13.80
2019-03-18T15:10:18.735Z,14.40
2019-03-18T15:12:51.225Z,14.70
2019-03-18T15:15:22.967Z,14.70
2019-03-18T15:17:54.387Z,14.90
2019-03-18T15:20:25.966Z,14.70
2019-03-18T15:22:57.804Z,14.20
2019-03-18T15:25:29.125Z,13.60
2019-03-18T15:28:00.363Z,12.70
2019-03-18T15:30:31.628Z,12.30
2019-03-18T15:33:03.266Z,11.90
2019-03-18T15:35:34.833Z,12.60
2019-03-18T15:38:06.631Z,13.40
2019-03-18T15:40:39.303Z,13.50
2019-03-18T15:43:11.025Z,12.50
2019-03-18T15:45:42.623Z,11.20
2019-03-18T15:48:13.799Z,10.20
2019-03-18T15:50:45.353Z,10.60
2019-03-18T15:53:17.154Z,11.40
2019-03-18T15:55:48.705Z,11.60
2019-03-18T15:58:20.201Z,11.70
2019-03-18T16:00:51.332Z,11.50
2019-03-18T16:03:22.557Z,11.20
2019-03-18T16:05:53.651Z,10.70
2019-03-18T16:08:25.867Z,10.10
2019-03-18T16:10:56.775Z,10.10
2019-03-18T16:13:28.347Z,10.20
2019-03-18T16:16:00.169Z,9.90
2019-03-18T16:18:31.938Z,9.10
2019-03-18T16:21:03.016Z,8.40
2019-03-18T16:23:35.196Z,8.00
2019-03-18T16:26:06.846Z,7.70
2019-03-18T16:28:38.466Z,7.40
2019-03-18T16:31:09.564Z,7.30
2019-03-18T16:33:40.686Z,7.20
2019-03-18T16:36:12.894Z,7.20
2019-03-18T16:38:44.037Z,7.10
2019-03-18T16:41:15.055Z,7.10
2019-03-18T16:43:46.743Z,7.10
2019-03-18T16:46:17.843Z,7.10
2019-03-18T16:48:49.550Z,7.00
2019-03-18T16:51:21.105Z,7.00
2019-03-18T16:53:52.708Z,6.90
2019-03-18T16:56:23.855Z,6.90
2019-03-18T16:58:55.044Z,6.80
2019-03-18T17:01:27.286Z,6.70
2019-03-18T17:03:58.481Z,6.70
2019-03-18T17:06:29.512Z,6.60
2019-03-18T17:09:00.846Z,6.60
2019-03-18T17:11:32.070Z,6.60
2019-03-18T17:14:03.369Z,6.60
2019-03-18T17:16:34.513Z,6.40
2019-03-18T17:19:06.022Z,6.20
2019-03-18T17:21:37.473Z,6.00
2019-03-18T17:24:08.634Z,5.70
2019-03-18T17:26:48.551Z,5.50
2019-03-18T17:29:34.941Z,5.40
2019-03-18T17:32:06.493Z,5.20
2019-03-18T17:37:39.111Z,5.00
2019-03-18T17:40:11.013Z,4.90
2019-03-18T17:42:52.829Z,4.80
2019-03-18T17:48:09.729Z,4.80
2019-03-18T17:50:41.183Z,4.70
2019-03-18T17:56:02.439Z,4.60
2019-03-18T17:58:33.809Z,4.50
2019-03-18T18:01:05.538Z,4.50
2019-03-18T18:03:37.153Z,4.50
2019-03-18T18:06:08.939Z,4.50
2019-03-18T18:08:40.332Z,4.50
2019-03-18T18:11:12.962Z,4.50
2019-03-18T18:13:44.676Z,4.50
2019-03-18T18:16:16.801Z,4.50
2019-03-18T18:18:48.319Z,4.50
2019-03-18T18:21:19.840Z,4.50
2019-03-18T18:23:51.260Z,4.40
2019-03-18T18:26:37.758Z,4.40
2019-03-18T18:29:08.813Z,4.50
2019-03-18T18:31:40.521Z,4.40
2019-03-18T18:34:12.098Z,4.40
2019-03-18T18:36:43.831Z,4.40
2019-03-18T18:39:15.975Z,4.50
2019-03-18T18:41:47.573Z,4.50
2019-03-18T18:44:19.668Z,4.50
2019-03-18T18:46:51.509Z,4.50
2019-03-18T18:49:23.139Z,4.50
2019-03-18T18:51:54.203Z,4.50
2019-03-18T18:54:25.335Z,4.60
2019-03-18T18:56:57.118Z,4.60
2019-03-18T18:59:28.803Z,4.60
2019-03-18T19:02:00.034Z,4.60
2019-03-18T19:04:31.913Z,4.60
2019-03-18T19:07:02.888Z,4.60
2019-03-18T19:09:34.045Z,4.60
2019-03-18T19:12:05.344Z,4.60
2019-03-18T19:14:36.957Z,4.60
2019-03-18T19:17:08.005Z,4.70
2019-03-18T19:19:40.700Z,4.60
2019-03-18T19:22:11.933Z,4.60
2019-03-18T19:24:43.562Z,4.60
2019-03-18T19:27:22.663Z,4.50
2019-03-18T19:29:54.276Z,4.50
2019-03-18T19:32:26.078Z,4.50
2019-03-18T19:34:57.248Z,4.50
2019-03-18T19:37:28.938Z,4.40
2019-03-18T19:40:00.172Z,4.40
2019-03-18T19:42:31.834Z,4.40
2019-03-18T19:45:03.072Z,4.40
2019-03-18T19:47:34.419Z,4.40
2019-03-18T19:50:06.559Z,4.40
2019-03-18T19:52:37.716Z,4.40
2019-03-18T19:55:12.896Z,4.50
2019-03-18T19:57:44.173Z,4.40
2019-03-18T20:00:42.983Z,4.50
2019-03-18T20:03:55.015Z,4.50
2019-03-18T20:07:02.094Z,4.50
2019-03-18T20:09:58.429Z,4.50
2019-03-18T20:12:32.245Z,4.40
2019-03-18T20:15:03.514Z,4.50
2019-03-18T20:17:34.592Z,4.40
2019-03-18T20:20:07.748Z,4.40
2019-03-18T20:22:40.076Z,4.30
2019-03-18T20:25:11.141Z,4.30
2019-03-18T20:27:42.428Z,4.30
2019-03-18T20:30:17.489Z,4.20
2019-03-18T20:32:48.740Z,4.20
2019-03-18T20:35:19.915Z,4.20
2019-03-18T20:37:52.086Z,4.10
2019-03-18T20:40:23.803Z,4.10
2019-03-18T20:42:54.823Z,4.10
2019-03-18T20:45:26.420Z,4.10
2019-03-18T20:47:58.106Z,4.00
2019-03-18T20:50:29.466Z,4.00
2019-03-18T20:53:00.813Z,4.00
2019-03-18T20:55:32.467Z,4.00
2019-03-18T20:58:03.660Z,4.00
2019-03-18T21:00:34.802Z,4.00
2019-03-18T21:03:06.099Z,4.00
2019-03-18T21:05:37.048Z,4.10
2019-03-18T21:08:08.333Z,4.10
2019-03-18T21:10:39.312Z,4.10
2019-03-18T21:13:10.338Z,4.10
2019-03-18T21:15:41.292Z,4.00
2019-03-18T21:18:13.421Z,4.00
2019-03-18T21:20:44.404Z,4.00
2019-03-18T21:23:15.754Z,4.00
2019-03-18T21:26:31.852Z,4.00
2019-03-18T21:29:03.134Z,4.00
2019-03-18T21:31:35.204Z,4.00
2019-03-18T21:34:06.603Z,4.00
2019-03-18T21:36:38.406Z,4.10
2019-03-18T21:39:10.825Z,4.10
2019-03-18T21:41:42.005Z,4.10
2019-03-18T21:44:13.336Z,4.20
2019-03-18T21:46:44.417Z,4.20
2019-03-18T21:49:15.474Z,4.20
2019-03-18T21:51:46.678Z,4.20
2019-03-18T21:54:17.676Z,4.20
2019-03-18T21:56:48.741Z,4.20
2019-03-18T21:59:19.962Z,4.20
2019-03-18T22:01:51.017Z,4.20
2019-03-18T22:04:22.088Z,4.10
2019-03-18T22:06:53.308Z,4.10
2019-03-18T22:09:24.293Z,4.10
2019-03-18T22:11:55.235Z,4.10
2019-03-18T22:14:26.375Z,4.10
2019-03-18T22:16:57.697Z,4.10
2019-03-18T22:19:28.841Z,4.20
2019-03-18T22:21:59.954Z,4.20
2019-03-18T22:24:30.965Z,4.10
2019-03-18T22:27:02.178Z,4.10
2019-03-18T22:29:34.608Z,4.10
2019-03-18T22:32:05.671Z,4.10
2019-03-18T22:34:37.091Z,4.10
2019-03-18T22:37:08.235Z,4.00
2019-03-18T22:39:39.323Z,4.00
2019-03-18T22:42:10.308Z,3.90
2019-03-18T22:44:41.296Z,3.90
2019-03-18T22:47:12.537Z,3.90
2019-03-18T22:49:43.523Z,3.80
2019-03-18T22:52:14.526Z,3.80
2019-03-18T22:54:55.349Z,3.80
2019-03-18T22:57:18.286Z,3.80
2019-03-18T22:59:50.740Z,3.80
2019-03-18T23:02:21.921Z,3.90
2019-03-18T23:04:52.875Z,3.90
2019-03-18T23:07:24.000Z,3.90
2019-03-18T23:09:55.060Z,3.90
2019-03-18T23:12:35.515Z,3.90
2019-03-18T23:15:07.191Z,3.90
2019-03-18T23:17:38.128Z,3.90
2019-03-18T23:20:09.254Z,3.90
2019-03-18T23:22:41.377Z,3.90
2019-03-18T23:25:12.506Z,3.90
2019-03-18T23:27:43.918Z,3.90
2019-03-18T23:30:15.386Z,3.90
2019-03-18T23:32:46.407Z,3.90
2019-03-18T23:35:18.705Z,3.80
2019-03-18T23:37:49.764Z,3.80
2019-03-18T23:40:20.645Z,3.90
2019-03-18T23:42:51.711Z,3.90
2019-03-18T23:45:22.595Z,3.90
2019-03-18T23:47:53.606Z,3.90
2019-03-18T23:50:27.620Z,4.00
2019-03-18T23:52:58.600Z,4.00
2019-03-18T23:55:29.533Z,3.90
2019-03-18T23:58:00.505Z,3.90
